sensor_id;sensor_type;location;lat;lon;timestamp;P1;durP1;ratioP1;P2;durP2;ratioP2
6205;SDS011;3136;48.788;9.772;2023-04-24T00:00:16;6.10;;;2.10;;
6205;SDS011;3136;48.788;9.772;2023-04-24T00:02:42;2.00;;;1.80;;
6205;SDS011;3136;48.788;9.772;2023-04-24T00:05:13;3.20;;;1.73;;
6205;SDS011;3136;48.788;9.772;2023-04-24T00:07:40;3.80;;;1.80;;
6205;SDS011;3136;48.788;9.772;2023-04-24T00:10:07;1.70;;;1.60;;
6205;SDS011;3136;48.788;9.772;2023-04-24T00:12:33;2.10;;;1.60;;
6205;SDS011;3136;48.788;9.772;2023-04-24T00:14:59;8.13;;;1.90;;
6205;SDS011;3136;48.788;9.772;2023-04-24T00:17:25;2.77;;;1.80;;
6205;SDS011;3136;48.788;9.772;2023-04-24T00:19:51;2.40;;;1.90;;
6205;SDS011;3136;48.788;9.772;2023-04-24T00:22:23;4.33;;;1.97;;
6205;SDS011;3136;48.788;9.772;2023-04-24T00:24:51;2.90;;;2.00;;
6205;SDS011;3136;48.788;9.772;2023-04-24T00:27:17;2.70;;;1.70;;
6205;SDS011;3136;48.788;9.772;2023-04-24T00:29:42;3.53;;;1.93;;
6205;SDS011;3136;48.788;9.772;2023-04-24T00:32:08;1.93;;;1.80;;
6205;SDS011;3136;48.788;9.772;2023-04-24T00:34:33;5.80;;;2.00;;
6205;SDS011;3136;48.788;9.772;2023-04-24T00:36:59;2.83;;;2.00;;
6205;SDS011;3136;48.788;9.772;2023-04-24T00:39:25;5.13;;;2.00;;
6205;SDS011;3136;48.788;9.772;2023-04-24T00:41:50;2.77;;;1.90;;
6205;SDS011;3136;48.788;9.772;2023-04-24T00:44:17;2.33;;;1.83;;
6205;SDS011;3136;48.788;9.772;2023-04-24T00:46:43;3.63;;;1.80;;
6205;SDS011;3136;48.788;9.772;2023-04-24T00:49:08;5.10;;;2.20;;
6205;SDS011;3136;48.788;9.772;2023-04-24T00:51:34;2.60;;;2.40;;
6205;SDS011;3136;48.788;9.772;2023-04-24T00:54:03;2.27;;;1.90;;
6205;SDS011;3136;48.788;9.772;2023-04-24T00:56:28;4.40;;;2.17;;
6205;SDS011;3136;48.788;9.772;2023-04-24T00:58:54;3.63;;;2.17;;
6205;SDS011;3136;48.788;9.772;2023-04-24T01:01:21;4.17;;;2.30;;
6205;SDS011;3136;48.788;9.772;2023-04-24T01:03:47;3.47;;;1.97;;
6205;SDS011;3136;48.788;9.772;2023-04-24T01:06:15;2.77;;;1.93;;
6205;SDS011;3136;48.788;9.772;2023-04-24T01:08:41;5.13;;;1.87;;
6205;SDS011;3136;48.788;9.772;2023-04-24T01:11:08;1.93;;;1.73;;
6205;SDS011;3136;48.788;9.772;2023-04-24T01:13:34;2.83;;;2.17;;
6205;SDS011;3136;48.788;9.772;2023-04-24T01:15:59;5.07;;;2.00;;
6205;SDS011;3136;48.788;9.772;2023-04-24T01:18:25;2.63;;;1.93;;
6205;SDS011;3136;48.788;9.772;2023-04-24T01:20:53;2.43;;;2.00;;
6205;SDS011;3136;48.788;9.772;2023-04-24T01:23:21;3.10;;;1.97;;
6205;SDS011;3136;48.788;9.772;2023-04-24T01:25:47;2.77;;;2.20;;
6205;SDS011;3136;48.788;9.772;2023-04-24T01:28:14;2.20;;;2.00;;
6205;SDS011;3136;48.788;9.772;2023-04-24T01:30:40;5.33;;;2.20;;
6205;SDS011;3136;48.788;9.772;2023-04-24T01:33:06;2.83;;;1.80;;
6205;SDS011;3136;48.788;9.772;2023-04-24T01:35:32;2.73;;;1.97;;
6205;SDS011;3136;48.788;9.772;2023-04-24T01:37:57;3.30;;;2.00;;
6205;SDS011;3136;48.788;9.772;2023-04-24T01:40:23;3.53;;;2.00;;
6205;SDS011;3136;48.788;9.772;2023-04-24T01:42:49;6.53;;;2.00;;
6205;SDS011;3136;48.788;9.772;2023-04-24T01:45:15;2.83;;;2.03;;
6205;SDS011;3136;48.788;9.772;2023-04-24T01:47:40;2.20;;;2.03;;
6205;SDS011;3136;48.788;9.772;2023-04-24T01:50:06;2.93;;;2.07;;
6205;SDS011;3136;48.788;9.772;2023-04-24T01:52:32;3.23;;;2.00;;
6205;SDS011;3136;48.788;9.772;2023-04-24T01:55:00;5.60;;;1.97;;
6205;SDS011;3136;48.788;9.772;2023-04-24T01:57:26;2.00;;;1.80;;
6205;SDS011;3136;48.788;9.772;2023-04-24T01:59:51;4.93;;;1.97;;
6205;SDS011;3136;48.788;9.772;2023-04-24T02:02:17;2.80;;;2.33;;
6205;SDS011;3136;48.788;9.772;2023-04-24T02:04:42;4.83;;;2.20;;
6205;SDS011;3136;48.788;9.772;2023-04-24T02:07:08;4.13;;;2.07;;
6205;SDS011;3136;48.788;9.772;2023-04-24T02:09:34;3.63;;;2.37;;
6205;SDS011;3136;48.788;9.772;2023-04-24T02:11:59;6.10;;;2.43;;
6205;SDS011;3136;48.788;9.772;2023-04-24T02:14:25;5.67;;;2.37;;
6205;SDS011;3136;48.788;9.772;2023-04-24T02:16:51;5.57;;;2.77;;
6205;SDS011;3136;48.788;9.772;2023-04-24T02:19:16;4.30;;;2.30;;
6205;SDS011;3136;48.788;9.772;2023-04-24T02:21:42;5.10;;;2.10;;
6205;SDS011;3136;48.788;9.772;2023-04-24T02:24:08;2.37;;;2.17;;
6205;SDS011;3136;48.788;9.772;2023-04-24T02:26:33;3.83;;;2.23;;
6205;SDS011;3136;48.788;9.772;2023-04-24T02:28:59;4.80;;;1.90;;
6205;SDS011;3136;48.788;9.772;2023-04-24T02:31:25;4.10;;;1.90;;
6205;SDS011;3136;48.788;9.772;2023-04-24T02:33:50;2.40;;;1.87;;
6205;SDS011;3136;48.788;9.772;2023-04-24T02:36:16;3.60;;;1.80;;
6205;SDS011;3136;48.788;9.772;2023-04-24T02:38:41;5.97;;;2.00;;
6205;SDS011;3136;48.788;9.772;2023-04-24T02:41:07;4.17;;;2.30;;
6205;SDS011;3136;48.788;9.772;2023-04-24T02:43:32;3.93;;;2.13;;
6205;SDS011;3136;48.788;9.772;2023-04-24T02:45:58;6.03;;;2.50;;
6205;SDS011;3136;48.788;9.772;2023-04-24T02:48:24;8.07;;;2.63;;
6205;SDS011;3136;48.788;9.772;2023-04-24T02:50:50;3.20;;;2.30;;
6205;SDS011;3136;48.788;9.772;2023-04-24T02:53:16;3.40;;;2.37;;
6205;SDS011;3136;48.788;9.772;2023-04-24T02:55:41;6.10;;;2.13;;
6205;SDS011;3136;48.788;9.772;2023-04-24T02:58:07;4.30;;;1.70;;
6205;SDS011;3136;48.788;9.772;2023-04-24T03:00:33;2.80;;;1.80;;
6205;SDS011;3136;48.788;9.772;2023-04-24T03:02:58;4.83;;;2.07;;
6205;SDS011;3136;48.788;9.772;2023-04-24T03:05:24;2.27;;;1.77;;
6205;SDS011;3136;48.788;9.772;2023-04-24T03:07:50;8.13;;;2.03;;
6205;SDS011;3136;48.788;9.772;2023-04-24T03:10:17;3.40;;;2.10;;
6205;SDS011;3136;48.788;9.772;2023-04-24T03:12:43;3.07;;;1.87;;
6205;SDS011;3136;48.788;9.772;2023-04-24T03:15:08;4.53;;;1.90;;
6205;SDS011;3136;48.788;9.772;2023-04-24T03:17:34;5.50;;;2.07;;
6205;SDS011;3136;48.788;9.772;2023-04-24T03:20:00;2.90;;;1.90;;
6205;SDS011;3136;48.788;9.772;2023-04-24T03:22:26;2.40;;;1.90;;
6205;SDS011;3136;48.788;9.772;2023-04-24T03:24:51;3.20;;;1.80;;
6205;SDS011;3136;48.788;9.772;2023-04-24T03:27:17;4.40;;;1.90;;
6205;SDS011;3136;48.788;9.772;2023-04-24T03:29:42;4.60;;;3.37;;
6205;SDS011;3136;48.788;9.772;2023-04-24T03:32:08;5.57;;;2.23;;
6205;SDS011;3136;48.788;9.772;2023-04-24T03:34:34;4.90;;;2.70;;
6205;SDS011;3136;48.788;9.772;2023-04-24T03:36:59;3.60;;;2.77;;
6205;SDS011;3136;48.788;9.772;2023-04-24T03:39:25;2.70;;;2.20;;
6205;SDS011;3136;48.788;9.772;2023-04-24T03:41:51;4.87;;;2.07;;
6205;SDS011;3136;48.788;9.772;2023-04-24T03:44:16;5.53;;;2.30;;
6205;SDS011;3136;48.788;9.772;2023-04-24T03:46:42;4.03;;;1.90;;
6205;SDS011;3136;48.788;9.772;2023-04-24T03:49:07;4.07;;;2.00;;
6205;SDS011;3136;48.788;9.772;2023-04-24T03:51:34;2.47;;;2.00;;
6205;SDS011;3136;48.788;9.772;2023-04-24T03:54:00;3.93;;;2.20;;
6205;SDS011;3136;48.788;9.772;2023-04-24T03:56:25;2.93;;;1.97;;
6205;SDS011;3136;48.788;9.772;2023-04-24T03:58:51;5.77;;;2.40;;
6205;SDS011;3136;48.788;9.772;2023-04-24T04:01:16;4.53;;;2.10;;
6205;SDS011;3136;48.788;9.772;2023-04-24T04:03:43;3.70;;;2.00;;
6205;SDS011;3136;48.788;9.772;2023-04-24T04:06:09;6.13;;;1.70;;
6205;SDS011;3136;48.788;9.772;2023-04-24T04:08:36;3.13;;;1.80;;
6205;SDS011;3136;48.788;9.772;2023-04-24T04:11:01;2.73;;;2.00;;
6205;SDS011;3136;48.788;9.772;2023-04-24T04:13:27;3.07;;;2.00;;
6205;SDS011;3136;48.788;9.772;2023-04-24T04:15:52;6.23;;;1.80;;
6205;SDS011;3136;48.788;9.772;2023-04-24T04:18:18;4.37;;;1.73;;
6205;SDS011;3136;48.788;9.772;2023-04-24T04:20:46;4.00;;;1.83;;
6205;SDS011;3136;48.788;9.772;2023-04-24T04:23:12;4.47;;;1.90;;
6205;SDS011;3136;48.788;9.772;2023-04-24T04:25:37;5.03;;;2.30;;
6205;SDS011;3136;48.788;9.772;2023-04-24T04:28:03;4.50;;;2.43;;
6205;SDS011;3136;48.788;9.772;2023-04-24T04:30:28;5.67;;;2.10;;
6205;SDS011;3136;48.788;9.772;2023-04-24T04:32:57;2.50;;;1.90;;
6205;SDS011;3136;48.788;9.772;2023-04-24T04:35:23;4.33;;;2.13;;
6205;SDS011;3136;48.788;9.772;2023-04-24T04:37:49;4.97;;;2.47;;
6205;SDS011;3136;48.788;9.772;2023-04-24T04:40:16;3.63;;;2.50;;
6205;SDS011;3136;48.788;9.772;2023-04-24T04:42:42;2.50;;;2.10;;
6205;SDS011;3136;48.788;9.772;2023-04-24T04:45:10;4.30;;;2.43;;
6205;SDS011;3136;48.788;9.772;2023-04-24T04:47:36;4.67;;;2.63;;
6205;SDS011;3136;48.788;9.772;2023-04-24T04:50:02;3.53;;;2.40;;
6205;SDS011;3136;48.788;9.772;2023-04-24T04:52:28;6.90;;;2.60;;
6205;SDS011;3136;48.788;9.772;2023-04-24T04:54:54;3.27;;;2.60;;
6205;SDS011;3136;48.788;9.772;2023-04-24T04:57:20;4.40;;;2.43;;
6205;SDS011;3136;48.788;9.772;2023-04-24T04:59:46;4.90;;;2.43;;
6205;SDS011;3136;48.788;9.772;2023-04-24T05:02:11;3.67;;;2.40;;
6205;SDS011;3136;48.788;9.772;2023-04-24T05:04:37;4.20;;;2.23;;
6205;SDS011;3136;48.788;9.772;2023-04-24T05:07:03;2.43;;;2.10;;
6205;SDS011;3136;48.788;9.772;2023-04-24T05:09:28;7.37;;;3.07;;
6205;SDS011;3136;48.788;9.772;2023-04-24T05:11:54;9.43;;;2.83;;
6205;SDS011;3136;48.788;9.772;2023-04-24T05:14:21;4.60;;;2.20;;
6205;SDS011;3136;48.788;9.772;2023-04-24T05:16:47;2.83;;;2.07;;
6205;SDS011;3136;48.788;9.772;2023-04-24T05:19:12;4.40;;;1.63;;
6205;SDS011;3136;48.788;9.772;2023-04-24T05:21:39;2.07;;;1.50;;
6205;SDS011;3136;48.788;9.772;2023-04-24T05:24:05;3.37;;;1.57;;
6205;SDS011;3136;48.788;9.772;2023-04-24T05:26:31;2.43;;;1.60;;
6205;SDS011;3136;48.788;9.772;2023-04-24T05:28:57;3.50;;;1.70;;
6205;SDS011;3136;48.788;9.772;2023-04-24T05:31:22;2.97;;;1.70;;
6205;SDS011;3136;48.788;9.772;2023-04-24T05:33:48;3.90;;;1.70;;
6205;SDS011;3136;48.788;9.772;2023-04-24T05:36:13;1.93;;;1.63;;
6205;SDS011;3136;48.788;9.772;2023-04-24T05:38:39;1.77;;;1.67;;
6205;SDS011;3136;48.788;9.772;2023-04-24T05:41:05;1.80;;;1.70;;
6205;SDS011;3136;48.788;9.772;2023-04-24T05:43:30;5.10;;;1.93;;
6205;SDS011;3136;48.788;9.772;2023-04-24T05:45:56;3.47;;;1.90;;
6205;SDS011;3136;48.788;9.772;2023-04-24T05:48:22;4.20;;;1.77;;
6205;SDS011;3136;48.788;9.772;2023-04-24T05:50:47;2.00;;;1.77;;
6205;SDS011;3136;48.788;9.772;2023-04-24T05:53:13;4.40;;;2.10;;
6205;SDS011;3136;48.788;9.772;2023-04-24T05:55:39;3.00;;;1.90;;
6205;SDS011;3136;48.788;9.772;2023-04-24T05:58:04;5.60;;;2.40;;
6205;SDS011;3136;48.788;9.772;2023-04-24T06:00:31;3.97;;;1.90;;
6205;SDS011;3136;48.788;9.772;2023-04-24T06:02:57;2.87;;;1.80;;
6205;SDS011;3136;48.788;9.772;2023-04-24T06:05:23;1.90;;;1.77;;
6205;SDS011;3136;48.788;9.772;2023-04-24T06:07:50;4.37;;;1.87;;
6205;SDS011;3136;48.788;9.772;2023-04-24T06:10:15;3.87;;;1.57;;
6205;SDS011;3136;48.788;9.772;2023-04-24T06:12:41;4.97;;;1.83;;
6205;SDS011;3136;48.788;9.772;2023-04-24T06:15:07;4.33;;;1.80;;
6205;SDS011;3136;48.788;9.772;2023-04-24T06:17:33;3.60;;;1.90;;
6205;SDS011;3136;48.788;9.772;2023-04-24T06:19:58;3.07;;;2.73;;
6205;SDS011;3136;48.788;9.772;2023-04-24T06:22:24;2.50;;;1.80;;
6205;SDS011;3136;48.788;9.772;2023-04-24T06:24:49;3.73;;;1.67;;
6205;SDS011;3136;48.788;9.772;2023-04-24T06:27:15;2.03;;;1.70;;
6205;SDS011;3136;48.788;9.772;2023-04-24T06:29:40;3.67;;;1.77;;
6205;SDS011;3136;48.788;9.772;2023-04-24T06:32:06;2.00;;;1.83;;
6205;SDS011;3136;48.788;9.772;2023-04-24T06:34:32;2.03;;;1.80;;
6205;SDS011;3136;48.788;9.772;2023-04-24T06:36:59;1.90;;;1.73;;
6205;SDS011;3136;48.788;9.772;2023-04-24T06:39:24;2.50;;;1.53;;
6205;SDS011;3136;48.788;9.772;2023-04-24T06:41:50;4.47;;;1.80;;
6205;SDS011;3136;48.788;9.772;2023-04-24T06:44:16;3.70;;;1.70;;
6205;SDS011;3136;48.788;9.772;2023-04-24T06:46:41;3.77;;;1.90;;
6205;SDS011;3136;48.788;9.772;2023-04-24T06:49:07;3.53;;;1.70;;
6205;SDS011;3136;48.788;9.772;2023-04-24T06:51:33;3.30;;;1.90;;
6205;SDS011;3136;48.788;9.772;2023-04-24T06:53:58;2.33;;;1.73;;
6205;SDS011;3136;48.788;9.772;2023-04-24T06:56:24;2.63;;;1.80;;
6205;SDS011;3136;48.788;9.772;2023-04-24T06:58:50;2.03;;;1.57;;
6205;SDS011;3136;48.788;9.772;2023-04-24T07:01:16;2.67;;;1.60;;
6205;SDS011;3136;48.788;9.772;2023-04-24T07:03:42;4.63;;;1.50;;
6205;SDS011;3136;48.788;9.772;2023-04-24T07:06:08;2.47;;;1.80;;
6205;SDS011;3136;48.788;9.772;2023-04-24T07:08:35;4.23;;;1.80;;
6205;SDS011;3136;48.788;9.772;2023-04-24T07:11:01;2.20;;;1.70;;
6205;SDS011;3136;48.788;9.772;2023-04-24T07:13:27;3.13;;;1.80;;
6205;SDS011;3136;48.788;9.772;2023-04-24T07:15:53;2.37;;;1.80;;
6205;SDS011;3136;48.788;9.772;2023-04-24T07:18:21;2.50;;;1.90;;
6205;SDS011;3136;48.788;9.772;2023-04-24T07:20:46;3.27;;;2.00;;
6205;SDS011;3136;48.788;9.772;2023-04-24T07:23:12;2.67;;;1.90;;
6205;SDS011;3136;48.788;9.772;2023-04-24T07:25:38;2.40;;;2.13;;
6205;SDS011;3136;48.788;9.772;2023-04-24T07:28:04;2.80;;;2.00;;
6205;SDS011;3136;48.788;9.772;2023-04-24T07:30:30;1.80;;;1.70;;
6205;SDS011;3136;48.788;9.772;2023-04-24T07:32:57;3.47;;;1.90;;
6205;SDS011;3136;48.788;9.772;2023-04-24T07:35:23;3.03;;;2.60;;
6205;SDS011;3136;48.788;9.772;2023-04-24T07:37:51;3.07;;;2.10;;
6205;SDS011;3136;48.788;9.772;2023-04-24T07:40:17;2.20;;;1.80;;
6205;SDS011;3136;48.788;9.772;2023-04-24T07:42:43;4.80;;;2.10;;
6205;SDS011;3136;48.788;9.772;2023-04-24T07:45:09;2.27;;;2.00;;
6205;SDS011;3136;48.788;9.772;2023-04-24T07:47:35;3.13;;;1.90;;
6205;SDS011;3136;48.788;9.772;2023-04-24T07:50:02;2.70;;;1.97;;
6205;SDS011;3136;48.788;9.772;2023-04-24T07:52:28;2.33;;;1.70;;
6205;SDS011;3136;48.788;9.772;2023-04-24T07:54:54;2.03;;;1.70;;
6205;SDS011;3136;48.788;9.772;2023-04-24T07:57:23;2.27;;;1.67;;
6205;SDS011;3136;48.788;9.772;2023-04-24T07:59:50;1.90;;;1.70;;
6205;SDS011;3136;48.788;9.772;2023-04-24T08:02:15;2.20;;;1.50;;
6205;SDS011;3136;48.788;9.772;2023-04-24T08:04:41;2.57;;;1.80;;
6205;SDS011;3136;48.788;9.772;2023-04-24T08:07:07;3.77;;;1.70;;
6205;SDS011;3136;48.788;9.772;2023-04-24T08:09:33;2.30;;;1.60;;
6205;SDS011;3136;48.788;9.772;2023-04-24T08:11:58;2.43;;;1.80;;
6205;SDS011;3136;48.788;9.772;2023-04-24T08:14:24;3.67;;;1.93;;
6205;SDS011;3136;48.788;9.772;2023-04-24T08:16:54;2.53;;;1.73;;
6205;SDS011;3136;48.788;9.772;2023-04-24T08:19:20;3.77;;;2.37;;
6205;SDS011;3136;48.788;9.772;2023-04-24T08:21:46;4.67;;;2.63;;
6205;SDS011;3136;48.788;9.772;2023-04-24T08:24:12;2.13;;;1.93;;
6205;SDS011;3136;48.788;9.772;2023-04-24T08:26:37;2.13;;;1.80;;
6205;SDS011;3136;48.788;9.772;2023-04-24T08:29:03;2.23;;;1.60;;
6205;SDS011;3136;48.788;9.772;2023-04-24T08:31:29;2.90;;;1.77;;
6205;SDS011;3136;48.788;9.772;2023-04-24T08:33:54;2.87;;;1.70;;
6205;SDS011;3136;48.788;9.772;2023-04-24T08:36:20;2.70;;;1.70;;
6205;SDS011;3136;48.788;9.772;2023-04-24T08:38:46;2.40;;;1.63;;
6205;SDS011;3136;48.788;9.772;2023-04-24T08:41:11;2.27;;;1.67;;
6205;SDS011;3136;48.788;9.772;2023-04-24T08:43:40;4.90;;;1.90;;
6205;SDS011;3136;48.788;9.772;2023-04-24T08:46:06;1.70;;;1.60;;
6205;SDS011;3136;48.788;9.772;2023-04-24T08:48:32;3.83;;;2.00;;
6205;SDS011;3136;48.788;9.772;2023-04-24T08:50:59;2.00;;;1.50;;
6205;SDS011;3136;48.788;9.772;2023-04-24T08:53:24;6.50;;;1.43;;
6205;SDS011;3136;48.788;9.772;2023-04-24T08:55:51;3.67;;;1.90;;
6205;SDS011;3136;48.788;9.772;2023-04-24T08:58:18;4.37;;;1.60;;
6205;SDS011;3136;48.788;9.772;2023-04-24T09:00:44;1.57;;;1.40;;
6205;SDS011;3136;48.788;9.772;2023-04-24T09:03:15;2.67;;;1.07;;
6205;SDS011;3136;48.788;9.772;2023-04-24T09:05:46;3.40;;;1.30;;
6205;SDS011;3136;48.788;9.772;2023-04-24T09:08:12;2.07;;;1.30;;
6205;SDS011;3136;48.788;9.772;2023-04-24T09:10:39;1.63;;;1.27;;
6205;SDS011;3136;48.788;9.772;2023-04-24T09:13:05;2.87;;;1.60;;
6205;SDS011;3136;48.788;9.772;2023-04-24T09:15:34;1.50;;;1.40;;
6205;SDS011;3136;48.788;9.772;2023-04-24T09:18:00;1.67;;;1.27;;
6205;SDS011;3136;48.788;9.772;2023-04-24T09:20:26;1.40;;;1.30;;
6205;SDS011;3136;48.788;9.772;2023-04-24T09:22:55;1.97;;;1.20;;
6205;SDS011;3136;48.788;9.772;2023-04-24T09:25:22;1.47;;;1.30;;
6205;SDS011;3136;48.788;9.772;2023-04-24T09:28:02;2.40;;;1.53;;
6205;SDS011;3136;48.788;9.772;2023-04-24T09:30:28;1.80;;;1.37;;
6205;SDS011;3136;48.788;9.772;2023-04-24T09:33:13;1.23;;;1.13;;
6205;SDS011;3136;48.788;9.772;2023-04-24T09:35:41;1.87;;;1.50;;
6205;SDS011;3136;48.788;9.772;2023-04-24T09:38:08;1.50;;;1.20;;
6205;SDS011;3136;48.788;9.772;2023-04-24T09:40:34;2.10;;;1.30;;
6205;SDS011;3136;48.788;9.772;2023-04-24T09:43:00;1.30;;;1.20;;
6205;SDS011;3136;48.788;9.772;2023-04-24T09:45:28;1.63;;;1.20;;
6205;SDS011;3136;48.788;9.772;2023-04-24T09:48:01;3.53;;;1.47;;
6205;SDS011;3136;48.788;9.772;2023-04-24T09:50:26;1.67;;;1.40;;
6205;SDS011;3136;48.788;9.772;2023-04-24T09:52:57;3.60;;;1.50;;
6205;SDS011;3136;48.788;9.772;2023-04-24T09:55:24;2.43;;;1.43;;
6205;SDS011;3136;48.788;9.772;2023-04-24T09:58:08;2.23;;;1.50;;
6205;SDS011;3136;48.788;9.772;2023-04-24T10:00:34;2.20;;;1.40;;
6205;SDS011;3136;48.788;9.772;2023-04-24T10:03:01;1.60;;;1.30;;
6205;SDS011;3136;48.788;9.772;2023-04-24T10:05:34;1.30;;;1.03;;
6205;SDS011;3136;48.788;9.772;2023-04-24T10:10:33;1.30;;;1.20;;
6205;SDS011;3136;48.788;9.772;2023-04-24T10:13:10;2.33;;;1.47;;
6205;SDS011;3136;48.788;9.772;2023-04-24T10:15:37;1.80;;;1.57;;
6205;SDS011;3136;48.788;9.772;2023-04-24T10:18:04;1.80;;;1.40;;
6205;SDS011;3136;48.788;9.772;2023-04-24T10:20:31;2.23;;;1.53;;
6205;SDS011;3136;48.788;9.772;2023-04-24T10:22:59;6.10;;;1.37;;
6205;SDS011;3136;48.788;9.772;2023-04-24T10:25:26;4.10;;;1.60;;
6205;SDS011;3136;48.788;9.772;2023-04-24T10:27:55;1.80;;;1.37;;
6205;SDS011;3136;48.788;9.772;2023-04-24T10:30:29;2.40;;;1.40;;
6205;SDS011;3136;48.788;9.772;2023-04-24T10:33:00;2.57;;;1.60;;
6205;SDS011;3136;48.788;9.772;2023-04-24T10:35:39;3.03;;;1.40;;
6205;SDS011;3136;48.788;9.772;2023-04-24T10:38:09;1.67;;;1.30;;
6205;SDS011;3136;48.788;9.772;2023-04-24T10:40:37;2.23;;;1.10;;
6205;SDS011;3136;48.788;9.772;2023-04-24T10:43:04;2.00;;;1.00;;
6205;SDS011;3136;48.788;9.772;2023-04-24T10:45:35;1.77;;;1.03;;
6205;SDS011;3136;48.788;9.772;2023-04-24T10:48:01;1.60;;;1.23;;
6205;SDS011;3136;48.788;9.772;2023-04-24T10:50:29;2.37;;;1.23;;
6205;SDS011;3136;48.788;9.772;2023-04-24T10:53:07;1.47;;;1.10;;
6205;SDS011;3136;48.788;9.772;2023-04-24T10:58:08;1.47;;;1.10;;
6205;SDS011;3136;48.788;9.772;2023-04-24T11:00:35;3.53;;;1.30;;
6205;SDS011;3136;48.788;9.772;2023-04-24T11:03:04;2.00;;;1.30;;
6205;SDS011;3136;48.788;9.772;2023-04-24T11:08:24;2.87;;;1.10;;
6205;SDS011;3136;48.788;9.772;2023-04-24T11:10:58;1.73;;;1.03;;
6205;SDS011;3136;48.788;9.772;2023-04-24T11:16:29;1.20;;;0.80;;
6205;SDS011;3136;48.788;9.772;2023-04-24T11:19:08;3.80;;;1.20;;
6205;SDS011;3136;48.788;9.772;2023-04-24T11:24:33;4.50;;;1.10;;
6205;SDS011;3136;48.788;9.772;2023-04-24T11:29:48;1.07;;;0.90;;
6205;SDS011;3136;48.788;9.772;2023-04-24T11:32:26;1.90;;;1.00;;
6205;SDS011;3136;48.788;9.772;2023-04-24T11:34:59;1.73;;;1.10;;
6205;SDS011;3136;48.788;9.772;2023-04-24T11:37:26;1.93;;;1.00;;
6205;SDS011;3136;48.788;9.772;2023-04-24T11:40:03;2.77;;;0.90;;
6205;SDS011;3136;48.788;9.772;2023-04-24T11:42:49;2.47;;;1.40;;
6205;SDS011;3136;48.788;9.772;2023-04-24T11:45:16;1.67;;;1.07;;
6205;SDS011;3136;48.788;9.772;2023-04-24T11:47:43;6.40;;;1.10;;
6205;SDS011;3136;48.788;9.772;2023-04-24T11:50:17;1.33;;;1.03;;
6205;SDS011;3136;48.788;9.772;2023-04-24T11:52:44;1.90;;;1.20;;
6205;SDS011;3136;48.788;9.772;2023-04-24T11:57:41;1.27;;;1.03;;
6205;SDS011;3136;48.788;9.772;2023-04-24T12:00:14;2.83;;;1.10;;
6205;SDS011;3136;48.788;9.772;2023-04-24T12:02:44;2.37;;;1.10;;
6205;SDS011;3136;48.788;9.772;2023-04-24T12:05:25;3.20;;;1.20;;
6205;SDS011;3136;48.788;9.772;2023-04-24T12:07:52;1.63;;;0.90;;
6205;SDS011;3136;48.788;9.772;2023-04-24T12:10:22;1.13;;;0.90;;
6205;SDS011;3136;48.788;9.772;2023-04-24T12:12:49;0.80;;;0.80;;
6205;SDS011;3136;48.788;9.772;2023-04-24T12:15:16;0.70;;;0.70;;
6205;SDS011;3136;48.788;9.772;2023-04-24T12:17:42;1.47;;;0.80;;
6205;SDS011;3136;48.788;9.772;2023-04-24T12:20:09;0.90;;;0.90;;
6205;SDS011;3136;48.788;9.772;2023-04-24T12:22:51;2.60;;;0.90;;
6205;SDS011;3136;48.788;9.772;2023-04-24T12:25:28;0.77;;;0.73;;
6205;SDS011;3136;48.788;9.772;2023-04-24T12:27:55;0.80;;;0.80;;
6205;SDS011;3136;48.788;9.772;2023-04-24T12:30:43;1.40;;;0.90;;
6205;SDS011;3136;48.788;9.772;2023-04-24T12:33:15;2.20;;;0.90;;
6205;SDS011;3136;48.788;9.772;2023-04-24T12:35:43;2.30;;;0.90;;
6205;SDS011;3136;48.788;9.772;2023-04-24T12:38:10;1.73;;;0.90;;
6205;SDS011;3136;48.788;9.772;2023-04-24T12:40:40;1.33;;;1.00;;
6205;SDS011;3136;48.788;9.772;2023-04-24T12:43:13;1.13;;;1.03;;
6205;SDS011;3136;48.788;9.772;2023-04-24T12:45:40;1.57;;;1.10;;
6205;SDS011;3136;48.788;9.772;2023-04-24T12:48:06;1.60;;;1.00;;
6205;SDS011;3136;48.788;9.772;2023-04-24T12:50:31;1.60;;;1.20;;
6205;SDS011;3136;48.788;9.772;2023-04-24T12:52:57;1.00;;;0.90;;
6205;SDS011;3136;48.788;9.772;2023-04-24T12:55:22;2.80;;;1.10;;
6205;SDS011;3136;48.788;9.772;2023-04-24T12:57:48;1.53;;;1.13;;
6205;SDS011;3136;48.788;9.772;2023-04-24T13:00:14;1.30;;;1.17;;
6205;SDS011;3136;48.788;9.772;2023-04-24T13:02:40;1.10;;;1.00;;
6205;SDS011;3136;48.788;9.772;2023-04-24T13:05:05;1.00;;;0.93;;
6205;SDS011;3136;48.788;9.772;2023-04-24T13:07:31;1.50;;;0.97;;
6205;SDS011;3136;48.788;9.772;2023-04-24T13:09:57;1.90;;;1.00;;
6205;SDS011;3136;48.788;9.772;2023-04-24T13:12:23;1.50;;;1.10;;
6205;SDS011;3136;48.788;9.772;2023-04-24T13:14:49;1.43;;;0.83;;
6205;SDS011;3136;48.788;9.772;2023-04-24T13:17:15;1.27;;;1.17;;
6205;SDS011;3136;48.788;9.772;2023-04-24T13:19:41;0.90;;;0.90;;
6205;SDS011;3136;48.788;9.772;2023-04-24T13:22:12;1.93;;;1.10;;
6205;SDS011;3136;48.788;9.772;2023-04-24T13:24:38;4.23;;;1.30;;
6205;SDS011;3136;48.788;9.772;2023-04-24T13:27:07;1.70;;;1.00;;
6205;SDS011;3136;48.788;9.772;2023-04-24T13:29:33;2.67;;;1.20;;
6205;SDS011;3136;48.788;9.772;2023-04-24T13:31:59;1.30;;;1.20;;
6205;SDS011;3136;48.788;9.772;2023-04-24T13:34:25;1.47;;;1.20;;
6205;SDS011;3136;48.788;9.772;2023-04-24T13:36:52;1.20;;;1.10;;
6205;SDS011;3136;48.788;9.772;2023-04-24T13:39:19;1.97;;;1.13;;
6205;SDS011;3136;48.788;9.772;2023-04-24T13:41:45;3.17;;;1.07;;
6205;SDS011;3136;48.788;9.772;2023-04-24T13:44:13;4.47;;;1.20;;
6205;SDS011;3136;48.788;9.772;2023-04-24T13:46:39;1.03;;;0.97;;
6205;SDS011;3136;48.788;9.772;2023-04-24T13:49:05;1.60;;;1.03;;
6205;SDS011;3136;48.788;9.772;2023-04-24T13:51:30;1.33;;;0.80;;
6205;SDS011;3136;48.788;9.772;2023-04-24T13:53:58;4.47;;;1.27;;
6205;SDS011;3136;48.788;9.772;2023-04-24T13:56:24;1.40;;;1.10;;
6205;SDS011;3136;48.788;9.772;2023-04-24T13:58:50;1.73;;;1.10;;
6205;SDS011;3136;48.788;9.772;2023-04-24T14:01:16;1.17;;;1.00;;
6205;SDS011;3136;48.788;9.772;2023-04-24T14:03:42;1.20;;;1.10;;
6205;SDS011;3136;48.788;9.772;2023-04-24T14:06:10;3.10;;;1.20;;
6205;SDS011;3136;48.788;9.772;2023-04-24T14:08:36;1.40;;;1.27;;
6205;SDS011;3136;48.788;9.772;2023-04-24T14:11:02;2.10;;;1.43;;
6205;SDS011;3136;48.788;9.772;2023-04-24T14:13:27;1.37;;;1.20;;
6205;SDS011;3136;48.788;9.772;2023-04-24T14:15:53;2.37;;;1.60;;
6205;SDS011;3136;48.788;9.772;2023-04-24T14:18:19;1.67;;;1.37;;
6205;SDS011;3136;48.788;9.772;2023-04-24T14:20:45;0.97;;;0.97;;
6205;SDS011;3136;48.788;9.772;2023-04-24T14:23:10;1.70;;;1.30;;
6205;SDS011;3136;48.788;9.772;2023-04-24T14:25:36;1.30;;;1.20;;
6205;SDS011;3136;48.788;9.772;2023-04-24T14:28:02;1.40;;;1.10;;
6205;SDS011;3136;48.788;9.772;2023-04-24T14:30:28;1.13;;;0.80;;
6205;SDS011;3136;48.788;9.772;2023-04-24T14:32:53;1.53;;;1.20;;
6205;SDS011;3136;48.788;9.772;2023-04-24T14:35:19;0.87;;;0.87;;
6205;SDS011;3136;48.788;9.772;2023-04-24T14:37:44;1.30;;;1.17;;
6205;SDS011;3136;48.788;9.772;2023-04-24T14:40:10;2.33;;;1.27;;
6205;SDS011;3136;48.788;9.772;2023-04-24T14:42:36;2.07;;;1.47;;
6205;SDS011;3136;48.788;9.772;2023-04-24T14:45:02;3.10;;;1.70;;
6205;SDS011;3136;48.788;9.772;2023-04-24T14:47:28;1.30;;;1.20;;
6205;SDS011;3136;48.788;9.772;2023-04-24T14:49:54;1.60;;;1.50;;
6205;SDS011;3136;48.788;9.772;2023-04-24T14:52:19;1.90;;;1.70;;
6205;SDS011;3136;48.788;9.772;2023-04-24T14:54:45;2.00;;;1.80;;
6205;SDS011;3136;48.788;9.772;2023-04-24T14:57:11;3.50;;;1.90;;
6205;SDS011;3136;48.788;9.772;2023-04-24T14:59:37;1.97;;;1.60;;
6205;SDS011;3136;48.788;9.772;2023-04-24T15:02:03;1.80;;;1.67;;
6205;SDS011;3136;48.788;9.772;2023-04-24T15:04:29;2.10;;;1.90;;
6205;SDS011;3136;48.788;9.772;2023-04-24T15:06:55;2.20;;;2.00;;
6205;SDS011;3136;48.788;9.772;2023-04-24T15:09:22;2.87;;;1.93;;
6205;SDS011;3136;48.788;9.772;2023-04-24T15:11:49;2.00;;;1.70;;
6205;SDS011;3136;48.788;9.772;2023-04-24T15:14:15;1.40;;;1.30;;
6205;SDS011;3136;48.788;9.772;2023-04-24T15:16:41;2.07;;;1.10;;
6205;SDS011;3136;48.788;9.772;2023-04-24T15:19:07;2.40;;;1.10;;
6205;SDS011;3136;48.788;9.772;2023-04-24T15:21:32;1.70;;;1.30;;
6205;SDS011;3136;48.788;9.772;2023-04-24T15:23:58;1.60;;;1.50;;
6205;SDS011;3136;48.788;9.772;2023-04-24T15:26:24;1.63;;;1.20;;
6205;SDS011;3136;48.788;9.772;2023-04-24T15:28:50;2.27;;;1.70;;
6205;SDS011;3136;48.788;9.772;2023-04-24T15:31:16;1.37;;;1.23;;